Date,TemperatureHighF,TemperatureAvgF,TemperatureLowF,DewpointHighF,DewpointAvgF,DewpointLowF,HumidityHigh,HumidityAvg,HumidityLow,PressureMaxIn,PressureMinIn,WindSpeedMaxMPH,WindSpeedAvgMPH,GustSpeedMaxMPH,PrecipitationSumIn
2013-1-1,30,24,18,24,15,11,78,69,56,30.19,30.04,9,1,11,0.00
2013-1-2,27,22,16,20,16,11,83,78,70,30.25,30.12,12,1,12,0.00
2013-1-3,30,24,17,28,18,9,92,78,66,30.21,30.09,11,2,14,0.00
2013-1-4,32,28,25,25,22,19,85,75,64,30.22,30.03,23,5,23,0.00
2013-1-5,33,32,23,30,26,20,93,81,73,30.25,30.07,12,2,14,0.00
2013-1-6,36,34,32,33,31,28,93,87,79,30.28,29.93,15,2,15,0.00
2013-1-7,36,33,30,29,26,24,84,76,67,30.41,30.19,23,3,24,0.00
2013-1-8,39,32,27,30,26,23,92,80,67,30.29,30.19,14,1,14,0.00
2013-1-9,48,40,32,35,30,25,87,69,44,30.46,30.06,18,3,20,0.00
2013-1-10,42,35,28,34,29,25,91,79,60,30.61,30.23,5,0,6,0.03
2013-1-11,57,46,36,52,43,33,97,90,77,30.24,29.78,18,2,21,0.65
2013-1-12,59,51,45,52,48,43,94,87,74,29.95,29.85,14,1,14,0.00
2013-1-13,51,40,32,49,38,30,94,91,86,30.04,29.69,12,1,15,0.56
2013-1-14,32,26,22,29,19,16,90,75,63,30.47,30.04,13,1,16,0.00
2013-1-15,31,25,19,22,18,15,87,75,59,30.49,30.19,4,0,5,0.00
2013-1-16,40,31,24,28,21,17,86,67,40,30.20,29.84,18,3,23,0.00
2013-1-17,37,31,19,30,22,6,84,68,52,30.34,29.97,15,2,17,0.00
2013-1-18,36,25,17,22,15,7,77,65,50,30.49,30.06,19,3,22,0.00
2013-1-19,47,41,36,35,30,24,74,65,59,30.01,29.58,10,6,24,0.00
2013-1-20,45,24,17,35,12,6,74,58,41,30.21,29.55,11,4,28,0.00
2013-1-21,19,15,6,14,6,-4,86,67,56,30.20,29.99,5,1,16,0.00
2013-1-22,11,6,1,2,-4,-11,75,62,51,30.34,30.16,7,2,19,0.00
2013-1-23,17,12,6,13,5,-2,92,74,58,30.35,30.14,5,1,13,0.00
2013-1-24,21,15,11,12,6,2,85,68,45,30.63,30.17,4,1,15,0.00
2013-1-25,21,19,14,17,13,6,88,79,62,30.57,30.07,5,0,6,0.02
2013-1-26,28,23,20,18,17,14,89,77,60,30.50,30.10,10,0,11,0.00
2013-1-27,30,24,16,28,18,12,93,79,59,30.53,30.19,7,1,9,0.38
2013-1-28,44,37,30,43,36,28,97,95,92,30.22,29.88,13,1,13,0.21
2013-1-29,56,46,36,55,44,35,100,96,94,30.05,29.49,13,1,17,0.60
2013-1-30,60,51,35,57,49,31,96,91,86,29.50,29.09,22,3,22,0.31
2013-1-31,35,24,18,31,16,11,86,73,61,29.91,29.21,16,4,26,0.00